Time;durP1;ratioP1;P1;durP2;ratioP2;P2;SDS_P1;SDS_P2;PMS_P1;PMS_P2;Temp;Humidity;BMP_temperature;BMP_pressure;BME280_temperature;BME280_humidity;BME280_pressure;Samples;Min_cycle;Max_cycle;Signal;HPM_P1;HPM_P2
2023/04/17 00:02:29;;;;;;;16.70;14.73;;;11.10;62.90;;;;;;20802;6746;118032;-72
2023/04/17 00:05:07;;;;;;;21.67;19.57;;;10.90;64.30;;;;;;20715;6716;305631;-72
2023/04/17 00:07:51;;;;;;;;;;;;;;;;;;;;;
2023/04/17 00:10:16;;;;;;;21.58;19.48;;;11.20;63.40;;;;;;20689;6731;335193;-72
2023/04/17 00:12:53;;;;;;;20.98;19.00;;;11.60;62.00;;;;;;20513;6744;308816;-72
2023/04/17 00:15:28;;;;;;;17.87;16.00;;;11.60;62.00;;;;;;20915;6727;117413;-72
2023/04/17 00:18:04;;;;;;;21.02;19.12;;;11.40;62.30;;;;;;20671;6742;275794;-72
2023/04/17 00:20:40;;;;;;;16.20;14.60;;;11.40;62.80;;;;;;20925;6728;117201;-72
2023/04/17 00:23:16;;;;;;;20.10;18.37;;;11.20;63.10;;;;;;20582;6727;278080;-72
2023/04/17 00:25:55;;;;;;;16.33;14.70;;;11.20;63.10;;;;;;20952;6712;117207;-74
2023/04/17 00:28:30;;;;;;;15.83;14.40;;;11.10;63.40;;;;;;21018;6697;117610;-72
2023/04/17 00:31:06;;;;;;;16.33;14.77;;;10.80;64.30;;;;;;21032;6690;117136;-72
2023/04/17 00:33:45;;;;;;;15.30;13.77;;;10.60;65.20;;;;;;20997;6709;117319;-72
2023/04/17 00:36:17;;;;;;;21.80;19.67;;;10.40;66.00;;;;;;20815;6694;275549;-72
2023/04/17 00:38:52;;;;;;;21.07;18.97;;;10.60;66.00;;;;;;20757;6709;309135;-72
2023/04/17 00:41:28;;;;;;;20.77;18.97;;;10.90;64.60;;;;;;20705;6709;278010;-72
2023/04/17 00:44:04;;;;;;;21.65;19.55;;;11.30;63.40;;;;;;20784;6709;333851;-72
2023/04/17 00:46:39;;;;;;;20.35;18.35;;;11.50;62.30;;;;;;20774;6709;304698;-72
2023/04/17 00:49:15;;;;;;;16.63;15.13;;;11.60;61.60;;;;;;20996;6709;120964;-72
2023/04/17 00:51:50;;;;;;;15.93;14.33;;;11.40;62.00;;;;;;20881;6709;117782;-72
2023/04/17 00:54:27;;;;;;;16.40;14.80;;;11.10;63.10;;;;;;20995;6709;120817;-72
2023/04/17 00:57:03;;;;;;;15.47;13.90;;;10.80;64.40;;;;;;21001;6709;118486;-72
2023/04/17 00:59:39;;;;;;;16.00;14.37;;;10.60;65.40;;;;;;20974;6709;117061;-72
2023/04/17 01:02:15;;;;;;;15.13;13.63;;;10.40;65.90;;;;;;20885;6694;117947;-72
2023/04/17 01:04:50;;;;;;;16.37;14.03;;;10.30;66.60;;;;;;20981;6709;117692;-72
2023/04/17 01:07:26;;;;;;;20.73;18.73;;;10.40;66.80;;;;;;20723;6714;340226;-71
2023/04/17 01:10:02;;;;;;;16.80;15.00;;;10.40;66.80;;;;;;20955;6705;117576;-74
2023/04/17 01:12:37;;;;;;;20.58;18.67;;;10.50;66.40;;;;;;20681;6705;306202;-72
2023/04/17 01:15:13;;;;;;;21.00;19.07;;;10.70;65.60;;;;;;20835;6675;304851;-71
2023/04/17 01:17:48;;;;;;;16.53;14.93;;;11.10;64.00;;;;;;21068;6675;117165;-72
2023/04/17 01:20:28;;;;;;;20.47;18.63;;;11.10;63.90;;;;;;20837;6675;304482;-71
2023/04/17 01:23:01;;;;;;;20.80;18.83;;;11.20;63.70;;;;;;20652;6675;291020;-71
2023/04/17 01:25:37;;;;;;;20.15;18.27;;;11.60;61.80;;;;;;20849;6675;308656;-72
2023/04/17 01:28:13;;;;;;;20.03;18.30;;;11.60;61.80;;;;;;20866;6675;276785;-72
2023/04/17 01:30:48;;;;;;;15.83;14.33;;;11.80;61.00;;;;;;21085;6675;119837;-71
2023/04/17 01:33:24;;;;;;;19.33;17.52;;;11.50;61.40;;;;;;20643;6731;305617;-72
2023/04/17 01:35:59;;;;;;;21.20;19.23;;;11.50;61.50;;;;;;20870;6675;275007;-71
2023/04/17 01:38:35;;;;;;;19.90;18.20;;;11.60;60.90;;;;;;20867;6675;303585;-72
2023/04/17 01:41:11;;;;;;;16.67;14.87;;;11.80;60.90;;;;;;21032;6675;117449;-72
2023/04/17 01:43:46;;;;;;;19.95;18.15;;;11.50;61.40;;;;;;20842;6675;286102;-72
2023/04/17 01:46:23;;;;;;;21.10;19.07;;;11.70;61.50;;;;;;20843;6675;275074;-72
2023/04/17 01:48:58;;;;;;;19.85;18.05;;;11.70;60.90;;;;;;20863;6675;331360;-72
2023/04/17 01:51:34;;;;;;;17.17;15.37;;;11.80;60.40;;;;;;20975;6675;117763;-72
2023/04/17 01:54:09;;;;;;;15.30;14.00;;;11.60;60.90;;;;;;21073;6675;117429;-72
2023/04/17 01:56:48;;;;;;;15.97;14.27;;;11.20;61.90;;;;;;21049;6675;117039;-72
2023/04/17 01:59:20;;;;;;;19.55;17.75;;;10.90;63.10;;;;;;20822;6675;274885;-72
2023/04/17 02:01:56;;;;;;;16.47;14.87;;;11.00;63.10;;;;;;20958;6675;117939;-72
2023/04/17 02:04:32;;;;;;;16.20;14.43;;;11.00;63.20;;;;;;20967;6675;117526;-72
2023/04/17 02:07:07;;;;;;;14.90;13.43;;;10.80;63.90;;;;;;21065;6675;116984;-72
2023/04/17 02:09:43;;;;;;;20.17;18.27;;;10.60;64.70;;;;;;20846;6675;304955;-72
2023/04/17 02:12:18;;;;;;;21.00;19.00;;;10.80;64.40;;;;;;20709;6675;306936;-72
2023/04/17 02:15:04;;;;;;;;;;;;;;;;;;;;;
2023/04/17 02:17:29;;;;;;;20.80;18.90;;;11.40;61.90;;;;;;20556;6675;322492;-72
2023/04/17 02:20:06;;;;;;;17.80;15.97;;;11.60;61.10;;;;;;21078;6675;117707;-72
2023/04/17 02:22:41;;;;;;;16.50;14.90;;;11.40;61.40;;;;;;20920;6675;117255;-72
2023/04/17 02:25:17;;;;;;;15.80;14.30;;;11.10;62.50;;;;;;21079;6675;117009;-72
2023/04/17 02:27:52;;;;;;;15.80;14.20;;;10.80;63.60;;;;;;21034;6675;120966;-72
2023/04/17 02:30:29;;;;;;;20.48;18.48;;;10.60;64.40;;;;;;20829;6675;308513;-72
2023/04/17 02:33:04;;;;;;;21.05;19.08;;;10.70;64.10;;;;;;20643;6675;306573;-72
2023/04/17 02:35:40;;;;;;;16.10;14.50;;;11.10;63.00;;;;;;21022;6675;118062;-72
2023/04/17 02:38:16;;;;;;;20.40;18.50;;;11.00;62.90;;;;;;20837;6675;304267;-72
2023/04/17 02:40:51;;;;;;;16.93;15.23;;;11.10;62.70;;;;;;21048;6675;117006;-72
2023/04/17 02:43:33;;;;;;;17.20;15.37;;;11.00;62.90;;;;;;20832;6746;121620;-72
2023/04/17 02:46:04;;;;;;;19.62;17.83;;;10.70;63.60;;;;;;20843;6675;279659;-72
2023/04/17 02:48:39;;;;;;;20.27;18.42;;;10.90;63.60;;;;;;20834;6675;332774;-72
2023/04/17 02:51:16;;;;;;;16.97;15.13;;;11.10;62.70;;;;;;21063;6675;117330;-72
2023/04/17 02:53:51;;;;;;;15.53;14.07;;;11.10;63.00;;;;;;21066;6675;116903;-72
2023/04/17 02:56:27;;;;;;;17.37;15.53;;;10.80;63.40;;;;;;21089;6675;117915;-72
2023/04/17 02:59:02;;;;;;;15.53;13.90;;;10.60;64.20;;;;;;21077;6675;117890;-72
2023/04/17 03:01:39;;;;;;;21.05;19.05;;;10.40;64.90;;;;;;20769;6675;277837;-72
2023/04/17 03:04:14;;;;;;;17.20;15.60;;;10.60;64.20;;;;;;21076;6675;120781;-72
2023/04/17 03:06:50;;;;;;;17.30;14.70;;;10.60;64.20;;;;;;21052;6675;117020;-72
2023/04/17 03:09:26;;;;;;;15.77;14.20;;;10.50;64.70;;;;;;21064;6675;117357;-72
2023/04/17 03:12:01;;;;;;;16.77;15.03;;;10.30;65.30;;;;;;20954;6675;119994;-72
2023/04/17 03:14:38;;;;;;;21.62;19.62;;;10.20;66.50;;;;;;20865;6675;303726;-72
2023/04/17 03:17:13;;;;;;;16.87;15.23;;;10.40;66.20;;;;;;21047;6675;116852;-72
2023/04/17 03:19:50;;;;;;;20.58;18.67;;;10.40;65.10;;;;;;20827;6675;304623;-72
2023/04/17 03:22:26;;;;;;;16.23;14.67;;;10.60;64.50;;;;;;20918;6675;117339;-72
2023/04/17 03:25:02;;;;;;;17.43;15.57;;;10.60;64.40;;;;;;21084;6675;117033;-72
2023/04/17 03:27:39;;;;;;;20.07;18.27;;;10.60;64.40;;;;;;20817;6675;309327;-72
2023/04/17 03:30:14;;;;;;;17.17;15.47;;;10.60;64.40;;;;;;21061;6675;116940;-72
2023/04/17 03:32:50;;;;;;;18.57;14.93;;;10.60;64.30;;;;;;20885;6675;117400;-72
2023/04/17 03:35:25;;;;;;;16.97;15.17;;;10.40;64.90;;;;;;21069;6675;117108;-72
2023/04/17 03:38:01;;;;;;;17.57;14.07;;;10.20;65.50;;;;;;21082;6675;118316;-73
2023/04/17 03:40:38;;;;;;;20.75;18.85;;;10.10;66.10;;;;;;20819;6675;334168;-73
2023/04/17 03:43:13;;;;;;;21.73;19.65;;;10.30;65.70;;;;;;20632;6675;278583;-72
2023/04/17 03:45:49;;;;;;;18.17;16.23;;;10.70;64.20;;;;;;21036;6675;117787;-72
2023/04/17 03:48:24;;;;;;;22.15;19.75;;;10.60;63.90;;;;;;20831;6675;333633;-72
2023/04/17 03:51:03;;;;;;;17.17;15.47;;;10.70;64.20;;;;;;21075;6675;117161;-72
2023/04/17 03:53:36;;;;;;;16.83;15.13;;;10.70;64.40;;;;;;21062;6675;117036;-72
2023/04/17 03:56:12;;;;;;;21.75;19.60;;;10.40;65.10;;;;;;20838;6674;303936;-72
2023/04/17 03:58:48;;;;;;;19.33;17.30;;;10.60;65.10;;;;;;21084;6675;117280;-72
2023/04/17 04:01:27;;;;;;;16.70;15.00;;;10.50;64.90;;;;;;20993;6675;117353;-72
2023/04/17 04:04:00;;;;;;;17.10;15.30;;;10.30;65.70;;;;;;21053;6675;116915;-74
2023/04/17 04:06:39;;;;;;;23.30;20.90;;;10.10;66.50;;;;;;20832;6675;337529;-73
2023/04/17 04:09:12;;;;;;;19.07;17.07;;;10.30;66.30;;;;;;21057;6675;122816;-72
2023/04/17 04:11:53;;;;;;;23.63;21.23;;;10.30;66.00;;;;;;20750;6675;276617;-71
2023/04/17 04:14:26;;;;;;;24.05;21.65;;;10.50;65.80;;;;;;20846;6675;275591;-72
2023/04/17 04:16:58;;;;;;;19.67;17.63;;;10.80;64.50;;;;;;21043;6690;117162;-71
2023/04/17 04:19:34;;;;;;;18.37;16.40;;;10.70;64.40;;;;;;21022;6690;117002;-71
2023/04/17 04:22:12;;;;;;;22.17;19.98;;;10.60;65.20;;;;;;20716;6690;337168;-71
2023/04/17 04:24:46;;;;;;;17.80;15.90;;;10.50;65.10;;;;;;21034;6690;117065;-71
2023/04/17 04:27:21;;;;;;;16.93;15.20;;;10.50;65.20;;;;;;21020;6690;117016;-70
2023/04/17 04:29:58;;;;;;;24.25;21.58;;;10.30;66.00;;;;;;20763;6705;338257;-73
2023/04/17 04:32:32;;;;;;;21.43;17.50;;;10.50;65.80;;;;;;20887;6690;117563;-72
2023/04/17 04:35:08;;;;;;;17.77;15.87;;;10.40;65.70;;;;;;20988;6705;122973;-70
2023/04/17 04:37:47;;;;;;;24.37;21.70;;;10.20;66.40;;;;;;20750;6705;305863;-71
2023/04/17 04:40:24;;;;;;;21.23;17.53;;;10.40;66.50;;;;;;21035;6690;117985;-70
2023/04/17 04:42:59;;;;;;;23.70;21.25;;;10.40;65.90;;;;;;20705;6690;317223;-70
2023/04/17 04:45:35;;;;;;;24.67;22.15;;;10.50;65.60;;;;;;20816;6675;275189;-70
2023/04/17 04:48:10;;;;;;;25.07;22.47;;;10.80;64.20;;;;;;20859;6675;305007;-70
2023/04/17 04:50:47;;;;;;;25.27;22.70;;;11.30;62.20;;;;;;20834;6675;337609;-70
2023/04/17 04:53:23;;;;;;;20.00;17.83;;;11.30;62.20;;;;;;20835;6675;123224;-71
2023/04/17 04:56:01;;;;;;;23.53;21.20;;;11.10;62.60;;;;;;20837;6675;279715;-70
2023/04/17 04:58:34;;;;;;;24.65;22.08;;;11.00;63.00;;;;;;20835;6675;333307;-70
2023/04/17 05:01:11;;;;;;;24.90;22.30;;;11.20;62.40;;;;;;20842;6675;303974;-70
2023/04/17 05:03:46;;;;;;;23.40;21.03;;;11.30;61.80;;;;;;20823;6675;298763;-69
2023/04/17 05:06:22;;;;;;;25.07;22.40;;;11.40;61.60;;;;;;20868;6675;305094;-68
2023/04/17 05:08:57;;;;;;;19.33;17.33;;;11.60;61.10;;;;;;21050;6675;116999;-70
2023/04/17 05:11:33;;;;;;;23.40;21.10;;;11.30;61.80;;;;;;20756;6675;307081;-70
2023/04/17 05:14:08;;;;;;;25.25;22.65;;;11.20;62.00;;;;;;20849;6675;275236;-69
2023/04/17 05:16:44;;;;;;;24.10;21.70;;;11.30;61.70;;;;;;20833;6675;304381;-69
2023/04/17 05:19:19;;;;;;;21.43;17.60;;;11.40;61.20;;;;;;21079;6675;117121;-70
2023/04/17 05:21:55;;;;;;;19.73;16.63;;;11.20;61.70;;;;;;20988;6675;117920;-68
2023/04/17 05:24:31;;;;;;;23.55;21.25;;;10.80;63.00;;;;;;20837;6675;302117;-70
2023/04/17 05:27:07;;;;;;;24.23;21.62;;;11.10;62.70;;;;;;20835;6675;303595;-69
2023/04/17 05:29:43;;;;;;;20.80;18.03;;;11.10;62.70;;;;;;21043;6675;116942;-70
2023/04/17 05:32:18;;;;;;;18.80;16.80;;;10.90;63.00;;;;;;20957;6675;117747;-70
2023/04/17 05:34:54;;;;;;;23.63;21.23;;;10.70;63.90;;;;;;20842;6675;302735;-70
2023/04/17 05:37:30;;;;;;;19.73;17.37;;;10.70;64.10;;;;;;21066;6675;117988;-70
2023/04/17 05:40:06;;;;;;;24.63;21.97;;;10.60;64.20;;;;;;20842;6675;312648;-70
2023/04/17 05:42:42;;;;;;;24.03;21.53;;;10.80;64.10;;;;;;20683;6675;306464;-70
2023/04/17 05:45:17;;;;;;;23.60;21.30;;;11.10;63.20;;;;;;20849;6675;317515;-70
2023/04/17 05:47:53;;;;;;;20.47;18.27;;;11.40;62.60;;;;;;21074;6675;117303;-70
2023/04/17 05:50:28;;;;;;;18.63;15.87;;;11.20;62.80;;;;;;21083;6675;117006;-71
2023/04/17 05:53:10;;;;;;;19.40;15.97;;;10.90;63.70;;;;;;20856;6675;117178;-69
2023/04/17 05:55:41;;;;;;;18.43;15.87;;;10.60;64.60;;;;;;21066;6675;127167;-70
2023/04/17 05:58:16;;;;;;;20.37;16.60;;;10.50;65.80;;;;;;21077;6675;117163;-70
2023/04/17 06:00:52;;;;;;;18.00;15.63;;;10.30;66.30;;;;;;21060;6675;117010;-68
2023/04/17 06:03:28;;;;;;;22.10;20.00;;;10.20;66.90;;;;;;20627;6746;280066;-68
2023/04/17 06:06:06;;;;;;;18.90;16.83;;;10.40;66.00;;;;;;21053;6675;117096;-70
2023/04/17 06:08:39;;;;;;;17.50;15.70;;;10.50;65.80;;;;;;21086;6675;117154;-70
2023/04/17 06:11:16;;;;;;;21.67;19.62;;;10.60;66.30;;;;;;20857;6675;309108;-70
2023/04/17 06:13:51;;;;;;;19.13;17.20;;;10.60;65.80;;;;;;21070;6675;116888;-70
2023/04/17 06:16:26;;;;;;;18.00;15.93;;;10.60;65.50;;;;;;21053;6675;122740;-70
2023/04/17 06:19:05;;;;;;;17.27;15.17;;;10.50;66.20;;;;;;21084;6675;116863;-70
2023/04/17 06:21:37;;;;;;;19.00;16.60;;;10.40;66.70;;;;;;20953;6675;117278;-70
2023/04/17 06:24:13;;;;;;;22.17;20.08;;;10.50;66.40;;;;;;20841;6675;276470;-69
2023/04/17 06:26:51;;;;;;;16.93;15.23;;;10.50;66.40;;;;;;21086;6675;123076;-70
2023/04/17 06:29:26;;;;;;;21.83;19.77;;;10.60;66.20;;;;;;20854;6675;304835;-70
2023/04/17 06:32:02;;;;;;;17.80;15.90;;;10.80;65.10;;;;;;20988;6675;117470;-71
2023/04/17 06:34:38;;;;;;;16.50;14.80;;;10.80;65.10;;;;;;21086;6675;117432;-71
2023/04/17 06:37:13;;;;;;;21.40;19.25;;;10.70;65.80;;;;;;20843;6675;333859;-71
2023/04/17 06:39:49;;;;;;;21.48;19.48;;;10.90;65.20;;;;;;20783;6675;338208;-71
2023/04/17 06:42:24;;;;;;;19.60;15.43;;;11.20;63.70;;;;;;20932;6675;117292;-71
2023/04/17 06:45:03;;;;;;;17.80;15.97;;;11.20;63.80;;;;;;20802;6705;116429;-71
2023/04/17 06:47:37;;;;;;;21.62;19.52;;;11.00;64.70;;;;;;20702;6720;324778;-72
2023/04/17 06:50:12;;;;;;;16.63;15.03;;;11.20;64.70;;;;;;20983;6705;117496;-71
2023/04/17 06:52:48;;;;;;;19.80;17.77;;;11.20;64.50;;;;;;20644;6705;314319;-71
2023/04/17 06:55:24;;;;;;;20.20;18.30;;;11.60;62.90;;;;;;20757;6705;296282;-72
2023/04/17 06:58:00;;;;;;;16.77;14.57;;;11.60;62.90;;;;;;20984;6705;122929;-71
2023/04/17 07:00:35;;;;;;;15.20;13.73;;;11.50;63.10;;;;;;20985;6705;117176;-71
2023/04/17 07:03:12;;;;;;;19.02;17.12;;;11.30;63.80;;;;;;20548;6720;307654;-70
2023/04/17 07:05:47;;;;;;;18.80;16.97;;;11.40;63.50;;;;;;20746;6709;308650;-71
2023/04/17 07:08:22;;;;;;;19.20;17.30;;;11.60;62.40;;;;;;20751;6714;276279;-71
2023/04/17 07:11:00;;;;;;;18.80;17.00;;;11.80;61.60;;;;;;20771;6706;288840;-71
2023/04/17 07:13:38;;;;;;;17.60;15.90;;;11.90;60.90;;;;;;20722;6716;278715;-71
2023/04/17 07:16:10;;;;;;;16.33;13.83;;;12.00;60.60;;;;;;20960;6716;117116;-71
2023/04/17 07:18:49;;;;;;;18.67;16.75;;;11.70;61.10;;;;;;20784;6716;334205;-71
2023/04/17 07:21:21;;;;;;;18.23;16.42;;;11.70;61.40;;;;;;20748;6716;340676;-71
2023/04/17 07:23:57;;;;;;;14.33;12.83;;;11.80;61.00;;;;;;20979;6709;117738;-71
2023/04/17 07:26:32;;;;;;;25.75;23.15;;;11.60;61.50;;;;;;20761;6709;275750;-71
2023/04/17 07:29:09;;;;;;;18.57;16.77;;;11.70;62.00;;;;;;20812;6694;304863;-71
2023/04/17 07:31:44;;;;;;;15.23;13.53;;;11.80;61.40;;;;;;20902;6704;118125;-71
2023/04/17 07:34:20;;;;;;;13.20;11.93;;;11.60;61.60;;;;;;20969;6709;117092;-71
2023/04/17 07:36:56;;;;;;;17.67;16.00;;;11.30;62.90;;;;;;20753;6704;334775;-70
2023/04/17 07:39:32;;;;;;;14.83;13.33;;;11.30;62.90;;;;;;21009;6694;126875;-71
2023/04/17 07:42:07;;;;;;;17.87;16.08;;;11.20;63.10;;;;;;20694;6709;306986;-71
2023/04/17 07:44:43;;;;;;;16.53;14.20;;;11.30;63.80;;;;;;21015;6709;117564;-71
2023/04/17 07:47:18;;;;;;;13.80;12.50;;;11.20;64.00;;;;;;20984;6709;117276;-71
2023/04/17 07:49:55;;;;;;;13.60;12.30;;;11.00;64.80;;;;;;20991;6694;117123;-71
2023/04/17 07:52:29;;;;;;;12.83;11.63;;;10.80;65.40;;;;;;20877;6694;117341;-71
2023/04/17 07:55:06;;;;;;;13.17;11.53;;;10.70;66.10;;;;;;20950;6709;123031;-71
2023/04/17 07:57:45;;;;;;;13.00;11.70;;;10.60;66.80;;;;;;20951;6709;124154;-71
2023/04/17 08:00:20;;;;;;;16.87;15.23;;;10.50;67.50;;;;;;20807;6694;291335;-71
2023/04/17 08:02:56;;;;;;;16.73;15.10;;;11.10;65.40;;;;;;20600;6704;277371;-71
2023/04/17 08:05:31;;;;;;;12.90;11.70;;;11.10;65.40;;;;;;20943;6709;117307;-71
2023/04/17 08:08:07;;;;;;;12.13;11.03;;;11.00;66.00;;;;;;20986;6705;117498;-71
2023/04/17 08:10:43;;;;;;;13.23;11.83;;;11.00;66.00;;;;;;21007;6694;117055;-71
2023/04/17 08:13:19;;;;;;;14.35;13.15;;;10.80;66.90;;;;;;20559;6704;277779;-71
2023/04/17 08:15:58;;;;;;;14.80;13.60;;;11.00;66.50;;;;;;20748;6709;276659;-72
2023/04/17 08:18:31;;;;;;;13.70;12.53;;;11.50;65.30;;;;;;20751;6709;279529;-72
2023/04/17 08:21:05;;;;;;;10.73;9.73;;;11.80;63.70;;;;;;21006;6694;118115;-72
2023/04/17 08:23:42;;;;;;;11.00;9.97;;;11.80;63.40;;;;;;20966;6709;118868;-72
2023/04/17 08:26:19;;;;;;;9.90;8.93;;;11.50;64.20;;;;;;20972;6709;117052;-72
2023/04/17 08:28:54;;;;;;;12.20;11.20;;;11.30;65.40;;;;;;20760;6709;303174;-72
2023/04/17 08:31:29;;;;;;;10.37;9.57;;;11.40;64.70;;;;;;20923;6709;119072;-72
2023/04/17 08:34:04;;;;;;;9.07;8.33;;;11.50;64.50;;;;;;20974;6709;117242;-72
2023/04/17 08:36:42;;;;;;;13.13;12.00;;;11.40;64.30;;;;;;20767;6709;305373;-72
2023/04/17 08:39:18;;;;;;;9.90;9.03;;;11.40;64.30;;;;;;20981;6709;120139;-72
2023/04/17 08:41:56;;;;;;;9.27;8.50;;;11.40;64.10;;;;;;20872;6709;117160;-72
2023/04/17 08:44:32;;;;;;;9.40;8.40;;;11.20;64.70;;;;;;20962;6709;116555;-72
2023/04/17 08:47:08;;;;;;;11.63;10.60;;;11.20;65.40;;;;;;20743;6704;279188;-72
2023/04/17 08:49:44;;;;;;;9.63;8.83;;;11.20;65.40;;;;;;20987;6694;117093;-72
2023/04/17 08:52:19;;;;;;;9.83;9.00;;;11.20;65.30;;;;;;20875;6709;117053;-72
2023/04/17 08:54:55;;;;;;;8.93;8.23;;;11.10;66.00;;;;;;20978;6709;117154;-72
2023/04/17 08:57:30;;;;;;;10.23;8.03;;;11.10;66.90;;;;;;20961;6709;117234;-72
2023/04/17 09:00:11;;;;;;;11.02;10.13;;;11.10;67.50;;;;;;20762;6709;281809;-71
2023/04/17 09:02:55;;;;;;;11.40;10.50;;;11.30;66.20;;;;;;20659;6694;278218;-71
2023/04/17 09:05:37;;;;;;;11.07;10.20;;;11.70;64.30;;;;;;20792;6694;304475;-72
2023/04/17 09:08:19;;;;;;;11.38;10.30;;;12.10;62.70;;;;;;20800;6694;304453;-71
2023/04/17 09:10:55;;;;;;;11.20;10.20;;;12.40;61.70;;;;;;20792;6694;304700;-70
2023/04/17 09:13:30;;;;;;;10.17;9.37;;;12.60;61.20;;;;;;20566;6766;312157;-71
2023/04/17 09:16:06;;;;;;;9.82;9.13;;;12.80;60.30;;;;;;20775;6705;275723;-71
2023/04/17 09:18:42;;;;;;;9.77;9.07;;;12.90;60.10;;;;;;20775;6705;304260;-72
2023/04/17 09:21:17;;;;;;;9.40;8.80;;;13.00;59.20;;;;;;20750;6705;304577;-71
2023/04/17 09:23:54;;;;;;;9.07;8.43;;;13.10;58.10;;;;;;20762;6705;306871;-71
2023/04/17 09:26:32;;;;;;;8.93;8.33;;;13.10;57.90;;;;;;20778;6705;275846;-72
2023/04/17 09:29:09;;;;;;;9.10;8.48;;;13.10;57.70;;;;;;20730;6720;276628;-70
2023/04/17 09:31:47;;;;;;;7.27;6.77;;;13.20;58.00;;;;;;20852;6724;117744;-70
2023/04/17 09:34:19;;;;;;;6.63;6.07;;;13.00;58.90;;;;;;20975;6709;117679;-70
2023/04/17 09:36:55;;;;;;;7.97;7.45;;;12.60;60.10;;;;;;20761;6709;333887;-71
2023/04/17 09:39:30;;;;;;;7.87;7.37;;;12.70;59.70;;;;;;20786;6694;303892;-71
2023/04/17 09:42:09;;;;;;;8.10;7.60;;;12.90;58.90;;;;;;20711;6694;308859;-70
2023/04/17 09:44:41;;;;;;;7.97;7.47;;;13.00;58.20;;;;;;20815;6694;334635;-70
2023/04/17 09:47:18;;;;;;;8.30;7.70;;;13.20;57.40;;;;;;20827;6705;303543;-69
2023/04/17 09:49:55;;;;;;;6.57;5.80;;;13.20;57.40;;;;;;20972;6705;120361;-69
2023/04/17 09:52:31;;;;;;;7.63;7.13;;;13.00;58.00;;;;;;20646;6704;282948;-70
2023/04/17 09:55:09;;;;;;;8.48;7.85;;;12.90;58.20;;;;;;20744;6719;309139;-70
2023/04/17 09:57:43;;;;;;;8.20;7.60;;;13.10;58.10;;;;;;20761;6704;309054;-70
2023/04/17 10:00:19;;;;;;;6.50;6.00;;;13.10;58.10;;;;;;20959;6719;117202;-69
2023/04/17 10:02:55;;;;;;;9.25;8.57;;;12.90;58.70;;;;;;20600;6714;307109;-70
2023/04/17 10:05:31;;;;;;;8.13;7.57;;;12.90;58.60;;;;;;20726;6704;275222;-71
2023/04/17 10:08:07;;;;;;;8.37;7.70;;;12.90;59.60;;;;;;20973;6709;118085;-70
2023/04/17 10:10:42;;;;;;;7.80;7.30;;;12.90;58.80;;;;;;20768;6709;309179;-70
2023/04/17 10:13:20;;;;;;;6.77;6.37;;;12.90;58.80;;;;;;20811;6709;117562;-69
2023/04/17 10:15:53;;;;;;;6.93;6.43;;;12.80;59.60;;;;;;20960;6709;116687;-71
2023/04/17 10:18:30;;;;;;;6.33;5.83;;;12.50;62.20;;;;;;20977;6709;116703;-71
2023/04/17 10:21:18;;;;;;;7.03;6.63;;;12.50;62.20;;;;;;20935;6709;117208;-75
2023/04/17 10:23:54;;;;;;;8.07;7.50;;;12.40;62.80;;;;;;20746;6709;304978;-77
2023/04/17 10:26:33;;;;;;;7.57;7.07;;;12.70;61.50;;;;;;20747;6713;275267;-73
2023/04/17 10:29:09;;;;;;;7.10;6.70;;;13.10;59.50;;;;;;20771;6709;276472;-74
2023/04/17 10:32:07;;;;;;;5.93;5.60;;;13.40;57.80;;;;;;20887;6709;117678;-74
2023/04/17 10:34:43;;;;;;;6.37;5.90;;;13.30;58.30;;;;;;20922;6726;116629;-72
2023/04/17 10:37:21;;;;;;;6.27;5.87;;;12.90;58.90;;;;;;20854;6747;116855;-72
2023/04/17 10:40:01;;;;;;;5.97;5.67;;;12.60;59.80;;;;;;20889;6733;116892;-71
2023/04/17 10:42:36;;;;;;;5.80;5.40;;;12.50;60.90;;;;;;20724;6748;117402;-68
2023/04/17 10:45:22;;;;;;;6.00;5.60;;;12.30;61.60;;;;;;20893;6737;117104;-70
2023/04/17 10:47:54;;;;;;;4.67;4.37;;;12.20;62.30;;;;;;20873;6737;118943;-69
2023/04/17 10:50:29;;;;;;;6.70;6.28;;;12.20;63.30;;;;;;20706;6730;307042;-71
2023/04/17 10:53:05;;;;;;;5.23;4.93;;;12.50;61.30;;;;;;20729;6730;117302;-71
2023/04/17 10:55:53;;;;;;;5.43;5.10;;;12.80;61.80;;;;;;20903;6730;117166;-71
2023/04/17 10:58:23;;;;;;;4.50;4.10;;;12.80;62.20;;;;;;20914;6730;121942;-71
2023/04/17 11:01:02;;;;;;;5.37;5.07;;;12.70;61.90;;;;;;20705;6730;277144;-70
2023/04/17 11:03:37;;;;;;;5.00;4.70;;;12.90;60.10;;;;;;20691;6715;305007;-71
2023/04/17 11:06:13;;;;;;;5.20;4.83;;;13.30;58.60;;;;;;20900;6734;116842;-71
2023/04/17 11:08:49;;;;;;;4.90;4.70;;;13.40;58.80;;;;;;20691;6731;337697;-69
2023/04/17 11:11:25;;;;;;;5.90;5.50;;;13.40;58.80;;;;;;20667;6730;278609;-71
2023/04/17 11:14:00;;;;;;;4.50;4.30;;;13.70;58.30;;;;;;20928;6715;117638;-71
2023/04/17 11:16:36;;;;;;;4.40;4.20;;;13.70;58.90;;;;;;20914;6734;116859;-73
2023/04/17 11:19:12;;;;;;;4.43;4.20;;;13.50;59.70;;;;;;20908;6732;115994;-70
2023/04/17 11:21:47;;;;;;;6.57;6.18;;;13.40;60.60;;;;;;20600;6730;312923;-71
2023/04/17 11:24:23;;;;;;;6.00;5.60;;;13.60;59.70;;;;;;20956;6715;116909;-70
2023/04/17 11:26:58;;;;;;;4.47;4.17;;;13.70;60.00;;;;;;20865;6734;118049;-72
2023/04/17 11:29:37;;;;;;;4.80;4.50;;;13.70;60.60;;;;;;20888;6732;117574;-72
2023/04/17 11:32:12;;;;;;;4.43;4.23;;;13.60;60.90;;;;;;20765;6730;118477;-71
2023/04/17 11:34:48;;;;;;;5.90;5.60;;;13.50;60.90;;;;;;20726;6715;305410;-70
2023/04/17 11:37:23;;;;;;;6.77;6.37;;;13.80;58.20;;;;;;20634;6734;292989;-70
2023/04/17 11:40:07;;;;;;;7.67;6.00;;;14.10;57.00;;;;;;20904;6732;122887;-68
2023/04/17 11:42:44;;;;;;;6.57;6.17;;;14.10;57.20;;;;;;20753;6730;117236;-69
2023/04/17 11:45:23;;;;;;;7.50;7.00;;;13.70;57.40;;;;;;20964;6715;119625;-69
2023/04/17 11:47:55;;;;;;;7.80;7.20;;;13.30;58.20;;;;;;20879;6734;119216;-68
2023/04/17 11:50:30;;;;;;;8.50;7.90;;;13.00;59.40;;;;;;20917;6732;116981;-68
2023/04/17 11:53:07;;;;;;;7.77;7.20;;;12.50;61.10;;;;;;20724;6730;117701;-68
2023/04/17 11:55:42;;;;;;;10.17;9.57;;;12.40;61.00;;;;;;20734;6715;290443;-68
2023/04/17 11:58:18;;;;;;;10.93;10.07;;;12.60;61.20;;;;;;20883;6734;117133;-68
2023/04/17 12:01:05;;;;;;;7.90;7.40;;;12.60;61.60;;;;;;20919;6726;117166;-68
2023/04/17 12:03:39;;;;;;;9.10;8.60;;;12.40;62.30;;;;;;20676;6730;315208;-69
2023/04/17 12:06:15;;;;;;;8.03;7.53;;;12.60;62.50;;;;;;20953;6715;119590;-69
2023/04/17 12:08:50;;;;;;;8.23;7.70;;;12.60;63.10;;;;;;20868;6734;117128;-69
2023/04/17 12:11:33;;;;;;;9.70;9.03;;;12.50;63.90;;;;;;20828;6732;119637;-69
2023/04/17 12:14:10;;;;;;;8.83;8.23;;;12.60;65.50;;;;;;20858;6730;70532;-68
2023/04/17 12:16:48;;;;;;;7.57;7.00;;;12.70;66.70;;;;;;20910;6730;116716;-69
2023/04/17 12:19:20;;;;;;;6.70;6.30;;;12.90;67.80;;;;;;20877;6730;117388;-69
2023/04/17 12:21:55;;;;;;;8.02;7.53;;;13.00;67.40;;;;;;20577;6734;342400;-69
2023/04/17 12:24:31;;;;;;;6.87;6.47;;;13.70;63.40;;;;;;20913;6730;116900;-70
2023/04/17 12:27:07;;;;;;;7.03;6.60;;;13.70;63.40;;;;;;20911;6730;117479;-70
2023/04/17 12:29:42;;;;;;;6.13;5.73;;;13.80;64.00;;;;;;20894;6730;120879;-70
2023/04/17 12:32:18;;;;;;;7.00;6.70;;;13.90;64.70;;;;;;20631;6730;320548;-69
2023/04/17 12:34:55;;;;;;;6.50;6.20;;;14.60;61.40;;;;;;20913;6730;119954;-69
2023/04/17 12:37:30;;;;;;;6.77;6.37;;;14.60;61.40;;;;;;20605;6730;280753;-69
2023/04/17 12:40:06;;;;;;;6.20;5.83;;;14.90;59.40;;;;;;20888;6730;117568;-70
2023/04/17 12:42:42;;;;;;;5.57;5.23;;;15.10;59.80;;;;;;20745;6730;117346;-69
2023/04/17 12:45:18;;;;;;;6.90;6.30;;;15.10;59.80;;;;;;20737;6715;305432;-70
2023/04/17 12:47:54;;;;;;;6.40;5.90;;;15.40;58.40;;;;;;20693;6715;275587;-70
2023/04/17 12:50:30;;;;;;;6.30;5.93;;;16.10;54.10;;;;;;20653;6730;276237;-70
2023/04/17 12:53:05;;;;;;;5.72;5.43;;;16.10;54.10;;;;;;20470;6734;337246;-70
2023/04/17 12:55:42;;;;;;;5.20;4.90;;;16.40;52.80;;;;;;20894;6730;117269;-70
2023/04/17 12:58:17;;;;;;;5.10;4.80;;;16.20;53.20;;;;;;20907;6730;117342;-73
2023/04/17 13:00:52;;;;;;;4.93;4.63;;;15.90;54.40;;;;;;20923;6715;120013;-70
2023/04/17 13:03:28;;;;;;;5.07;4.78;;;15.70;55.00;;;;;;20434;6805;308103;-70
2023/04/17 13:06:03;;;;;;;5.20;4.80;;;15.90;53.80;;;;;;20688;6732;310019;-69
2023/04/17 13:08:39;;;;;;;4.63;4.43;;;16.20;52.40;;;;;;20698;6730;335378;-69
2023/04/17 13:11:15;;;;;;;4.57;4.37;;;16.40;51.30;;;;;;20686;6715;275681;-69